createdAt,value
2019-05-02T00:01:33.784Z,8.70
2019-05-02T00:04:02.119Z,8.70
2019-05-02T00:06:29.685Z,8.60
2019-05-02T00:08:57.248Z,8.50
2019-05-02T00:11:24.821Z,8.40
2019-05-02T00:13:52.384Z,8.40
2019-05-02T00:16:19.952Z,8.30
2019-05-02T00:18:47.525Z,8.40
2019-05-02T00:21:15.100Z,8.40
2019-05-02T00:23:42.665Z,8.30
2019-05-02T00:26:10.232Z,8.30
2019-05-02T00:28:37.795Z,8.30
2019-05-02T00:31:07.467Z,8.30
2019-05-02T00:33:35.865Z,8.30
2019-05-02T00:36:02.499Z,8.30
2019-05-02T00:38:33.396Z,8.30
2019-05-02T00:41:02.227Z,8.20
2019-05-02T00:43:29.108Z,8.10
2019-05-02T00:45:55.097Z,8.00
2019-05-02T00:48:23.175Z,8.00
2019-05-02T00:50:50.914Z,8.00
2019-05-02T00:53:17.460Z,8.00
2019-05-02T00:55:45.027Z,7.90
2019-05-02T00:58:12.595Z,7.90
2019-05-02T01:00:56.783Z,7.80
2019-05-02T01:03:24.347Z,7.90
2019-05-02T01:05:51.922Z,7.80
2019-05-02T01:08:20.411Z,7.80
2019-05-02T01:10:52.160Z,7.70
2019-05-02T01:13:19.197Z,7.60
2019-05-02T01:15:45.954Z,7.60
2019-05-02T01:18:13.503Z,7.60
2019-05-02T01:20:41.068Z,7.60
2019-05-02T01:23:09.569Z,7.50
2019-05-02T01:25:37.133Z,7.50
2019-05-02T01:28:12.631Z,7.50
2019-05-02T01:33:36.757Z,7.50
2019-05-02T01:36:07.991Z,7.50
2019-05-02T01:38:36.323Z,7.50
2019-05-02T01:41:03.895Z,7.50
2019-05-02T01:43:33.384Z,7.40
2019-05-02T01:46:00.968Z,7.30
2019-05-02T01:48:28.532Z,7.30
2019-05-02T01:50:58.013Z,7.30
2019-05-02T01:53:29.216Z,7.30
2019-05-02T01:55:57.625Z,7.30
2019-05-02T01:58:24.643Z,7.20
2019-05-02T02:00:52.206Z,7.20
2019-05-02T02:03:19.767Z,7.20
2019-05-02T02:05:47.337Z,7.20
2019-05-02T02:08:14.903Z,7.20
2019-05-02T02:10:43.890Z,7.20
2019-05-02T02:13:10.876Z,7.10
2019-05-02T02:15:38.443Z,7.10
2019-05-02T02:18:06.006Z,7.10
2019-05-02T02:20:39.031Z,7.10
2019-05-02T02:23:10.274Z,7.10
2019-05-02T02:25:37.547Z,7.10
2019-05-02T02:28:05.102Z,7.00
2019-05-02T02:30:32.682Z,7.00
2019-05-02T02:33:06.968Z,7.00
2019-05-02T02:35:27.869Z,6.90
2019-05-02T02:37:55.849Z,6.90
2019-05-02T02:40:32.899Z,6.90
2019-05-02T02:42:52.317Z,7.00
2019-05-02T02:45:24.322Z,6.90
2019-05-02T02:47:59.917Z,7.00
2019-05-02T02:50:21.445Z,7.00
2019-05-02T02:52:49.013Z,7.10
2019-05-02T02:55:22.053Z,7.00
2019-05-02T02:57:44.188Z,6.90
2019-05-02T03:00:12.679Z,6.90
2019-05-02T03:02:47.654Z,6.90
2019-05-02T03:05:08.633Z,6.80
2019-05-02T03:07:36.220Z,6.80
2019-05-02T03:10:06.165Z,6.70
2019-05-02T03:12:36.147Z,6.70
2019-05-02T03:15:01.933Z,6.70
2019-05-02T03:17:30.432Z,6.60
2019-05-02T03:20:01.101Z,6.60
2019-05-02T03:22:25.619Z,6.60
2019-05-02T03:24:53.193Z,6.50
2019-05-02T03:27:30.038Z,6.50
2019-05-02T03:30:03.321Z,6.50
2019-05-02T03:32:35.015Z,6.50
2019-05-02T03:34:58.552Z,6.50
2019-05-02T03:37:26.089Z,6.50
2019-05-02T03:39:57.450Z,6.50
2019-05-02T03:42:23.182Z,6.50
2019-05-02T03:44:56.036Z,6.40
2019-05-02T03:47:18.354Z,6.50
2019-05-02T03:49:48.720Z,6.50
2019-05-02T03:52:13.528Z,6.50
2019-05-02T03:54:50.547Z,6.50
2019-05-02T03:57:08.710Z,6.40
2019-05-02T03:59:39.263Z,6.40
2019-05-02T04:02:03.883Z,6.40
2019-05-02T04:04:31.440Z,6.40
2019-05-02T04:07:01.209Z,6.30
2019-05-02T04:09:32.068Z,6.40
2019-05-02T04:11:57.231Z,6.50
2019-05-02T04:14:37.561Z,6.50
2019-05-02T04:16:55.124Z,6.50
2019-05-02T04:19:21.970Z,6.50
2019-05-02T04:21:52.689Z,6.50
2019-05-02T04:24:17.901Z,6.50
2019-05-02T04:26:53.666Z,6.40
2019-05-02T04:29:13.067Z,6.50
2019-05-02T04:31:40.637Z,6.40
2019-05-02T04:34:15.121Z,6.50
2019-05-02T04:36:35.828Z,6.50
2019-05-02T04:39:05.832Z,6.40
2019-05-02T04:41:34.130Z,6.30
2019-05-02T04:44:01.577Z,6.50
2019-05-02T04:46:31.162Z,6.60
2019-05-02T04:48:58.801Z,6.70
2019-05-02T04:51:27.648Z,6.80
2019-05-02T04:53:54.817Z,7.00
2019-05-02T04:56:22.380Z,7.00
2019-05-02T04:58:49.943Z,7.20
2019-05-02T05:01:17.506Z,7.30
2019-05-02T05:03:51.323Z,7.40
2019-05-02T05:06:12.700Z,7.40
2019-05-02T05:08:41.740Z,7.50
2019-05-02T05:11:07.911Z,7.40
2019-05-02T05:13:37.419Z,7.50
2019-05-02T05:16:07.576Z,7.80
2019-05-02T05:18:30.688Z,8.10
2019-05-02T05:20:58.256Z,8.30
2019-05-02T05:23:38.655Z,8.40
2019-05-02T05:26:07.340Z,8.50
2019-05-02T05:28:35.009Z,8.70
2019-05-02T05:31:01.476Z,8.80
2019-05-02T05:33:29.040Z,8.80
2019-05-02T05:35:57.838Z,8.90
2019-05-02T05:38:28.682Z,8.90
2019-05-02T05:40:53.720Z,9.00
2019-05-02T05:43:21.307Z,9.20
2019-05-02T05:45:56.106Z,9.40
2019-05-02T05:48:19.363Z,9.60
2019-05-02T05:50:47.859Z,9.90
2019-05-02T05:53:17.098Z,9.90
2019-05-02T05:55:42.913Z,10.30
2019-05-02T05:58:15.365Z,10.50
2019-05-02T06:00:38.170Z,10.60
2019-05-02T06:03:12.956Z,10.70
2019-05-02T06:05:38.449Z,10.80
2019-05-02T06:08:01.091Z,11.00
2019-05-02T06:10:28.647Z,11.00
2019-05-02T06:12:58.147Z,11.10
2019-05-02T06:15:25.707Z,11.20
2019-05-02T06:17:53.273Z,11.30
2019-05-02T06:20:20.834Z,11.50
2019-05-02T06:22:48.394Z,11.60
2019-05-02T06:25:17.031Z,11.80
2019-05-02T06:27:45.352Z,12.20
2019-05-02T06:30:13.146Z,12.20
2019-05-02T06:32:40.711Z,12.30
2019-05-02T06:35:08.291Z,12.50
2019-05-02T06:37:36.778Z,12.50
2019-05-02T06:40:08.073Z,12.70
2019-05-02T06:42:32.733Z,12.90
2019-05-02T06:45:01.056Z,12.90
2019-05-02T06:47:28.158Z,13.10
2019-05-02T06:50:01.079Z,13.10
2019-05-02T06:52:27.192Z,12.80
2019-05-02T06:54:54.115Z,13.00
2019-05-02T06:57:24.115Z,13.50
2019-05-02T06:59:49.929Z,13.70
2019-05-02T07:02:14.755Z,13.80
2019-05-02T07:04:42.319Z,13.90
2019-05-02T07:07:12.900Z,14.10
2019-05-02T07:09:41.365Z,14.20
2019-05-02T07:12:09.883Z,14.30
2019-05-02T07:14:34.625Z,14.30
2019-05-02T07:17:05.716Z,14.50
2019-05-02T07:19:32.171Z,14.60
2019-05-02T07:22:04.008Z,14.50
2019-05-02T07:24:30.559Z,14.70
2019-05-02T07:26:56.798Z,14.80
2019-05-02T07:29:23.148Z,14.80
2019-05-02T07:31:53.226Z,14.70
2019-05-02T07:34:18.719Z,14.60
2019-05-02T07:36:46.289Z,14.70
2019-05-02T07:39:15.794Z,14.90
2019-05-02T07:41:43.367Z,14.90
2019-05-02T07:44:11.896Z,15.10
2019-05-02T07:46:51.153Z,15.20
2019-05-02T07:49:09.023Z,15.30
2019-05-02T07:51:36.592Z,15.40
2019-05-02T07:54:04.161Z,15.40
2019-05-02T07:56:31.726Z,15.20
2019-05-02T07:59:00.206Z,15.40
2019-05-02T08:01:28.767Z,15.60
2019-05-02T08:03:56.343Z,15.70
2019-05-02T08:06:34.684Z,15.60
2019-05-02T08:08:51.527Z,15.60
2019-05-02T08:11:19.095Z,16.00
2019-05-02T08:13:49.499Z,16.30
2019-05-02T08:16:15.803Z,15.90
2019-05-02T08:18:43.362Z,15.90
2019-05-02T08:21:11.013Z,16.00
2019-05-02T08:23:38.571Z,16.50
2019-05-02T08:26:08.050Z,16.60
2019-05-02T08:28:39.490Z,16.60
2019-05-02T08:31:07.055Z,16.80
2019-05-02T08:33:35.811Z,17.10
2019-05-02T08:36:02.232Z,16.90
2019-05-02T08:38:30.728Z,16.70
2019-05-02T08:40:58.291Z,16.80
2019-05-02T08:43:25.855Z,16.90
2019-05-02T08:45:53.422Z,17.10
2019-05-02T08:48:22.692Z,17.20
2019-05-02T08:50:50.514Z,17.10
2019-05-02T08:53:19.955Z,17.20
2019-05-02T08:55:46.750Z,17.60
2019-05-02T08:58:15.898Z,17.60
2019-05-02T09:00:42.763Z,17.50
2019-05-02T09:03:10.320Z,17.70
2019-05-02T09:05:45.555Z,18.00
2019-05-02T09:08:09.194Z,18.30
2019-05-02T09:10:37.182Z,18.50
2019-05-02T09:13:02.806Z,18.40
2019-05-02T09:15:31.757Z,18.30
2019-05-02T09:17:58.750Z,18.00
2019-05-02T09:20:26.309Z,18.00
2019-05-02T09:22:55.955Z,18.10
2019-05-02T09:25:21.959Z,18.10
2019-05-02T09:27:49.083Z,18.00
2019-05-02T09:30:22.703Z,17.80
2019-05-02T09:32:44.246Z,17.90
2019-05-02T09:35:12.072Z,17.50
2019-05-02T09:37:41.694Z,17.70
2019-05-02T09:40:12.597Z,18.00
2019-05-02T09:42:36.384Z,17.70
2019-05-02T09:45:04.767Z,17.60
2019-05-02T09:47:41.542Z,17.80
2019-05-02T09:50:05.638Z,17.70
2019-05-02T09:52:39.186Z,18.20
2019-05-02T09:55:02.847Z,18.00
2019-05-02T09:57:28.417Z,18.00
2019-05-02T09:59:55.975Z,18.30
2019-05-02T10:02:25.249Z,18.70
2019-05-02T10:04:53.534Z,18.80
2019-05-02T10:07:22.267Z,18.80
2019-05-02T10:09:48.715Z,18.70
2019-05-02T10:12:16.278Z,18.80
2019-05-02T10:14:43.847Z,18.70
2019-05-02T10:17:12.563Z,18.80
2019-05-02T10:19:41.238Z,19.20
2019-05-02T10:22:06.631Z,19.00
2019-05-02T10:24:34.191Z,18.90
2019-05-02T10:27:06.474Z,19.10
2019-05-02T10:29:32.722Z,19.10
2019-05-02T10:31:57.896Z,19.20
2019-05-02T10:34:26.376Z,19.40
2019-05-02T10:36:58.526Z,19.60
2019-05-02T10:39:23.479Z,20.10
2019-05-02T10:41:49.155Z,20.50
2019-05-02T10:44:16.715Z,20.90
2019-05-02T10:46:45.063Z,20.40
2019-05-02T10:49:17.294Z,20.30
2019-05-02T10:51:49.188Z,20.70
2019-05-02T10:54:12.455Z,19.90
2019-05-02T10:56:42.416Z,19.70
2019-05-02T10:59:11.647Z,20.30
2019-05-02T11:04:32.430Z,20.60
2019-05-02T11:06:59.599Z,20.90
2019-05-02T11:09:27.153Z,20.80
2019-05-02T11:11:54.717Z,20.70
2019-05-02T11:14:25.833Z,20.90
2019-05-02T11:16:56.977Z,20.40
2019-05-02T11:19:24.594Z,20.60
2019-05-02T11:21:56.533Z,20.70
2019-05-02T11:24:19.765Z,21.10
2019-05-02T11:26:47.331Z,21.10
2019-05-02T11:29:14.896Z,20.40
2019-05-02T11:31:42.799Z,19.90
2019-05-02T11:34:12.181Z,20.40
2019-05-02T11:36:37.862Z,20.80
2019-05-02T11:39:17.005Z,20.50
2019-05-02T11:41:33.231Z,21.00
2019-05-02T11:44:02.778Z,21.70
2019-05-02T11:46:28.407Z,21.90
2019-05-02T11:48:58.544Z,22.10
2019-05-02T11:51:23.712Z,21.90
2019-05-02T11:53:52.736Z,21.60
2019-05-02T11:56:18.875Z,21.80
2019-05-02T11:58:48.157Z,22.00
2019-05-02T12:01:14.040Z,21.70
2019-05-02T12:03:42.289Z,21.70
2019-05-02T12:06:12.730Z,21.30
2019-05-02T12:08:39.381Z,21.20
2019-05-02T12:11:08.460Z,21.10
2019-05-02T12:13:34.511Z,20.90
2019-05-02T12:16:02.705Z,20.90
2019-05-02T12:18:29.697Z,20.70
2019-05-02T12:20:57.276Z,20.70
2019-05-02T12:23:24.892Z,20.50
2019-05-02T12:25:53.227Z,20.00
2019-05-02T12:28:22.737Z,20.00
2019-05-02T12:30:51.880Z,19.80
2019-05-02T12:33:17.982Z,19.50
2019-05-02T12:35:45.547Z,19.40
2019-05-02T12:38:13.885Z,18.40
2019-05-02T12:40:42.203Z,18.40
2019-05-02T12:43:09.068Z,18.40
2019-05-02T12:45:36.635Z,18.40
2019-05-02T12:48:04.207Z,18.20
2019-05-02T12:50:32.190Z,17.60
2019-05-02T12:52:59.388Z,17.60
2019-05-02T12:55:26.953Z,17.50
2019-05-02T12:57:55.427Z,17.20
2019-05-02T13:00:22.994Z,17.40
2019-05-02T13:02:52.634Z,17.50
2019-05-02T13:05:22.155Z,17.20
2019-05-02T13:07:50.521Z,17.00
2019-05-02T13:10:17.015Z,17.30
2019-05-02T13:12:44.576Z,17.20
2019-05-02T13:15:12.979Z,17.30
2019-05-02T13:17:47.023Z,17.30
2019-05-02T13:20:08.229Z,17.20
2019-05-02T13:22:41.948Z,17.00
2019-05-02T13:25:10.504Z,17.10
2019-05-02T13:27:43.367Z,17.00
2019-05-02T13:30:05.083Z,16.90
2019-05-02T13:32:32.648Z,16.60
2019-05-02T13:35:02.109Z,16.60
2019-05-02T13:37:27.821Z,16.60
2019-05-02T13:39:58.136Z,16.60
2019-05-02T13:42:27.607Z,16.70
2019-05-02T13:44:56.055Z,16.90
2019-05-02T13:47:23.619Z,16.70
2019-05-02T13:49:54.853Z,16.70
2019-05-02T13:52:18.812Z,16.40
2019-05-02T13:54:46.376Z,16.20
2019-05-02T13:57:13.935Z,16.50
2019-05-02T13:59:41.775Z,16.40
2019-05-02T14:02:09.099Z,16.60
2019-05-02T14:04:36.659Z,16.60
2019-05-02T14:07:07.584Z,16.90
2019-05-02T14:09:32.334Z,17.00
2019-05-02T14:14:53.410Z,16.80
2019-05-02T14:17:22.959Z,16.80
2019-05-02T14:19:57.011Z,16.20
2019-05-02T14:22:19.811Z,16.60
2019-05-02T14:24:47.366Z,16.60
2019-05-02T14:27:17.120Z,17.50
2019-05-02T14:29:42.567Z,18.30
2019-05-02T14:32:22.950Z,18.40
2019-05-02T14:34:45.246Z,18.60
2019-05-02T14:37:12.820Z,18.70
2019-05-02T14:39:41.617Z,18.20
2019-05-02T14:42:07.991Z,17.30
2019-05-02T14:45:01.243Z,16.90
2019-05-02T14:47:03.156Z,16.60
2019-05-02T14:49:32.130Z,16.30
2019-05-02T14:52:02.964Z,16.20
2019-05-02T14:54:25.925Z,16.00
2019-05-02T14:56:53.996Z,16.30
2019-05-02T14:59:22.745Z,16.70
2019-05-02T15:01:49.960Z,17.20
2019-05-02T15:04:17.524Z,17.90
2019-05-02T15:06:47.469Z,18.90
2019-05-02T15:09:16.763Z,19.70
2019-05-02T15:11:46.070Z,20.50
2019-05-02T15:14:19.715Z,19.80
2019-05-02T15:16:45.306Z,23.80
2019-05-02T15:19:14.119Z,24.70
2019-05-02T15:21:42.240Z,24.70
2019-05-02T15:24:09.297Z,23.70
2019-05-02T15:26:37.483Z,23.60
2019-05-02T15:29:06.520Z,23.80
2019-05-02T15:31:34.389Z,21.90
2019-05-02T15:34:04.945Z,20.10
2019-05-02T15:36:29.645Z,19.00
2019-05-02T15:41:26.731Z,17.90
2019-05-02T15:43:54.339Z,18.20
2019-05-02T15:46:23.676Z,18.50
2019-05-02T15:48:49.503Z,17.90
2019-05-02T15:51:17.059Z,17.50
2019-05-02T15:53:49.773Z,17.60
2019-05-02T15:56:19.720Z,17.40
2019-05-02T15:58:42.555Z,17.30
2019-05-02T16:01:13.219Z,17.50
2019-05-02T16:03:45.480Z,17.20
2019-05-02T16:06:09.275Z,17.30
2019-05-02T16:08:37.775Z,17.50
2019-05-02T16:11:08.874Z,17.50
2019-05-02T16:13:33.887Z,17.60
2019-05-02T16:16:05.419Z,17.90
2019-05-02T16:18:31.750Z,18.10
2019-05-02T16:21:07.041Z,18.10
2019-05-02T16:23:32.727Z,18.80
2019-05-02T16:25:56.917Z,18.80
2019-05-02T16:28:23.595Z,19.20
2019-05-02T16:30:52.546Z,18.80
2019-05-02T16:33:20.827Z,18.90
2019-05-02T16:35:52.915Z,18.70
2019-05-02T16:38:16.290Z,18.30
2019-05-02T16:40:43.886Z,18.30
2019-05-02T16:43:12.180Z,18.10
2019-05-02T16:45:39.053Z,17.60
2019-05-02T16:48:06.652Z,16.80
2019-05-02T16:50:36.987Z,17.10
2019-05-02T16:53:03.682Z,17.40
2019-05-02T16:55:32.690Z,17.20
2019-05-02T16:58:05.253Z,17.20
2019-05-02T17:00:26.467Z,17.30
2019-05-02T17:02:54.116Z,17.10
2019-05-02T17:05:22.098Z,16.70
2019-05-02T17:08:10.711Z,16.80
2019-05-02T17:10:37.752Z,16.90
2019-05-02T17:13:05.315Z,16.50
2019-05-02T17:15:35.304Z,16.60
2019-05-02T17:18:05.154Z,16.20
2019-05-02T17:20:29.036Z,15.80
2019-05-02T17:23:05.365Z,15.90
2019-05-02T17:25:26.103Z,16.00
2019-05-02T17:28:01.260Z,15.70
2019-05-02T17:30:22.507Z,15.60
2019-05-02T17:32:49.799Z,15.50
2019-05-02T17:35:17.359Z,15.50
2019-05-02T17:37:48.671Z,15.30
2019-05-02T17:40:16.835Z,15.40
2019-05-02T17:42:41.567Z,15.20
2019-05-02T17:45:08.000Z,15.10
2019-05-02T17:47:37.627Z,15.10
2019-05-02T17:50:07.272Z,15.00
2019-05-02T17:52:33.439Z,15.00
2019-05-02T17:55:01.741Z,14.80
2019-05-02T17:57:33.267Z,14.70
2019-05-02T17:59:56.210Z,14.70
2019-05-02T18:02:23.766Z,14.60
2019-05-02T18:04:55.718Z,14.30
2019-05-02T18:07:19.742Z,14.30
2019-05-02T18:09:47.298Z,14.00
2019-05-02T18:12:16.213Z,13.70
2019-05-02T18:14:42.475Z,13.50
2019-05-02T18:17:10.030Z,13.40
2019-05-02T18:19:37.601Z,13.30
2019-05-02T18:22:07.118Z,13.30
2019-05-02T18:24:32.850Z,13.30
2019-05-02T18:27:02.066Z,13.00
2019-05-02T18:29:28.026Z,13.00
2019-05-02T18:31:55.764Z,12.90
2019-05-02T18:34:25.101Z,12.70
2019-05-02T18:36:52.415Z,12.60
2019-05-02T18:39:23.599Z,12.60
2019-05-02T18:41:51.968Z,12.40
2019-05-02T18:44:19.690Z,12.40
2019-05-02T18:46:47.251Z,12.40
2019-05-02T18:49:17.075Z,12.60
2019-05-02T18:51:43.556Z,12.60
2019-05-02T18:54:12.132Z,12.40
2019-05-02T18:56:42.239Z,12.30
2019-05-02T18:59:06.877Z,12.30
2019-05-02T19:01:36.364Z,12.10
2019-05-02T19:04:03.926Z,12.00
2019-05-02T19:06:33.370Z,12.00
2019-05-02T19:09:02.012Z,12.20
2019-05-02T19:11:33.678Z,12.20
2019-05-02T19:13:56.179Z,12.20
2019-05-02T19:16:27.233Z,12.20
2019-05-02T19:18:54.476Z,12.10
2019-05-02T19:21:18.971Z,12.00
2019-05-02T19:23:46.530Z,12.10
2019-05-02T19:26:15.360Z,11.90
2019-05-02T19:28:42.933Z,11.80
2019-05-02T19:31:10.244Z,12.00
2019-05-02T19:33:42.676Z,12.00
2019-05-02T19:36:05.412Z,11.90
2019-05-02T19:38:34.823Z,11.80
2019-05-02T19:41:05.471Z,11.80
2019-05-02T19:43:28.200Z,11.80
2019-05-02T19:45:56.543Z,11.70
2019-05-02T19:48:27.423Z,11.70
2019-05-02T19:50:51.883Z,11.50
2019-05-02T19:53:19.643Z,11.50
2019-05-02T19:55:46.939Z,11.50
2019-05-02T19:58:14.523Z,11.40
2019-05-02T20:00:46.060Z,11.60
2019-05-02T20:03:13.627Z,11.60
2019-05-02T20:05:37.326Z,12.00
2019-05-02T20:08:04.887Z,12.10
2019-05-02T20:10:33.223Z,12.30
2019-05-02T20:13:02.928Z,12.30
2019-05-02T20:15:30.233Z,12.30
2019-05-02T20:18:00.724Z,12.30
2019-05-02T20:20:35.952Z,12.20
2019-05-02T20:23:15.007Z,12.10
2019-05-02T20:25:29.917Z,12.00
2019-05-02T20:27:57.311Z,12.00
2019-05-02T20:30:24.876Z,12.10
2019-05-02T20:32:52.426Z,12.00
2019-05-02T20:35:19.994Z,12.10
2019-05-02T20:37:47.560Z,12.20
2019-05-02T20:40:22.268Z,12.20
2019-05-02T20:42:49.045Z,12.20
2019-05-02T20:45:16.612Z,12.30
2019-05-02T20:47:44.172Z,12.30
2019-05-02T20:50:12.592Z,12.20
2019-05-02T20:52:41.731Z,12.20
2019-05-02T20:55:07.766Z,12.20
2019-05-02T20:57:35.327Z,12.00
2019-05-02T21:00:02.886Z,11.60
2019-05-02T21:02:31.870Z,11.30
2019-05-02T21:04:58.063Z,11.20
2019-05-02T21:07:25.648Z,11.20
2019-05-02T21:10:08.091Z,11.30
2019-05-02T21:12:35.659Z,11.20
2019-05-02T21:15:03.228Z,11.00
2019-05-02T21:17:32.645Z,10.90
2019-05-02T21:19:58.413Z,10.90
2019-05-02T21:22:25.979Z,10.80
2019-05-02T21:24:55.462Z,10.90
2019-05-02T21:27:23.023Z,10.80
2019-05-02T21:29:52.520Z,10.90
2019-05-02T21:32:20.091Z,11.00
2019-05-02T21:34:47.675Z,11.00
2019-05-02T21:37:15.240Z,11.00
2019-05-02T21:39:42.807Z,10.80
2019-05-02T21:42:11.147Z,10.60
2019-05-02T21:44:38.718Z,10.60
2019-05-02T21:47:06.283Z,10.60
2019-05-02T21:49:36.743Z,10.60
2019-05-02T21:52:07.043Z,10.70
2019-05-02T21:54:35.235Z,10.70
2019-05-02T21:57:03.271Z,10.70
2019-05-02T21:59:30.846Z,10.60
2019-05-02T22:01:58.415Z,10.80
2019-05-02T22:04:25.996Z,10.80
2019-05-02T22:06:54.490Z,10.80
2019-05-02T22:09:23.172Z,10.70
2019-05-02T22:11:52.033Z,10.60
2019-05-02T22:14:22.400Z,10.60
2019-05-02T22:16:48.359Z,10.50
2019-05-02T22:19:15.924Z,10.70
2019-05-02T22:21:43.494Z,10.50
2019-05-02T22:24:13.730Z,10.60
2019-05-02T22:26:38.672Z,10.40
2019-05-02T22:29:06.230Z,10.30
2019-05-02T22:31:35.731Z,10.40
2019-05-02T22:34:03.303Z,10.60
2019-05-02T22:36:32.772Z,10.60
2019-05-02T22:39:01.972Z,10.70
2019-05-02T22:41:28.563Z,10.80
2019-05-02T22:43:56.131Z,10.80
2019-05-02T22:46:29.423Z,10.80
2019-05-02T22:48:56.987Z,10.70
2019-05-02T22:51:25.468Z,10.60
2019-05-02T22:53:53.067Z,10.50
2019-05-02T22:56:22.230Z,10.50
2019-05-02T22:58:48.235Z,10.60
2019-05-02T23:01:15.790Z,10.60
2019-05-02T23:03:43.354Z,10.70
2019-05-02T23:06:12.517Z,10.70
2019-05-02T23:08:38.763Z,10.70
2019-05-02T23:11:07.279Z,10.80
2019-05-02T23:13:34.843Z,10.70
2019-05-02T23:16:02.924Z,10.80
2019-05-02T23:18:32.011Z,10.70
2019-05-02T23:21:02.161Z,10.70
2019-05-02T23:23:29.063Z,10.50
2019-05-02T23:25:57.083Z,10.40
2019-05-02T23:28:24.645Z,10.50
2019-05-02T23:30:52.207Z,10.60
2019-05-02T23:33:19.771Z,10.60
2019-05-02T23:35:47.336Z,10.50
2019-05-02T23:38:14.894Z,10.60
2019-05-02T23:40:42.455Z,10.70
2019-05-02T23:43:10.019Z,10.70
2019-05-02T23:45:37.579Z,10.70
2019-05-02T23:48:05.146Z,10.70
2019-05-02T23:50:32.702Z,10.60
2019-05-02T23:53:02.340Z,10.60
2019-05-02T23:55:28.631Z,10.60
2019-05-02T23:57:56.187Z,10.40
